Portada
METAR-TAF:

METAR-TAF

Aeroports :

Ankara-Esenboğa, Turquia

latitud: 40-07N, longitud: 032-59E, altitud: 953 m

Observació

L'informe es va fer fa 47 minuts, a les 12:20 UTC
Vent 16 kt del Nord
Temperatura 5°C
Humitat 35%
Pressió 1014 hPa
Visibilitat 10 km o més
Núvols disperses a una alçada de 4000 ft
Núvols disperses a una alçada de 8000 ft

METAR: LTAC 241220Z 01016KT 9999 SCT040 SCT080 05/M09 Q1014 NOSIG RMK RWY21L 01016KT RWY03L 01014KT RWY21R 03015KT

Hora: 16:07 (13:07 UTC)

Pronòstic

L'informe es va fer fa 2 hores i 27 minuts, a les 10:40 UTC
Pronòstic vàlid del 24 a les 12 UTC al 25 a les 12 UTC
Vent 9 kt del Nord-Est
Visibilitat 10 km o més
Núvols disperses a una alçada de 4000 ft
Temporalment
l' 24 a les 12 UTC al 24 a les 16 UTC
Vent 15 kt del Nord/Nord-Est amb ràfegues de 25 kt

TAF: LTAC 241040Z 2412/2512 04009KT 9999 SCT040 TEMPO 2412/2416 03015G25KT

Observacions i pronòstics meteorològics de més de 4000 aeroports (METAR i TAF).

Les estacions disponibles són els punts grocs i vermells al mapa.

Posi el ratolí al punt desitjat per veure el nom de l'estació.

Feu clic per veure les observacions i els pronòstics meteorològics.

Per canviar el mapa: feu clic els botons verds amb una creu de color negre per apropar; al botó verd amb un guió per allunyar la imatge; o en les fletxes verdes per a mapes adjacents.


METAR-TAF: